Time;durP1;ratioP1;P1;durP2;ratioP2;P2;SDS_P1;SDS_P2;PMS_P1;PMS_P2;Temp;Humidity;BMP_temperature;BMP_pressure;BME280_temperature;BME280_humidity;BME280_pressure;Samples;Min_cycle;Max_cycle;Signal;HPM_P1;HPM_P2
2024/01/17 00:01:14;;;;;;;23.85;7.82;;;;;;;-6.03;100.00;97567.97;5008315;28;20470;-56
2024/01/17 00:03:40;;;;;;;20.95;7.90;;;;;;;-6.00;100.00;97559.00;5010780;28;20021;-56
2024/01/17 00:06:05;;;;;;;19.02;8.40;;;;;;;-6.08;100.00;97545.66;5006847;28;20029;-56
2024/01/17 00:08:31;;;;;;;31.33;10.00;;;;;;;-6.09;100.00;97539.56;5009211;28;20171;-56
2024/01/17 00:10:56;;;;;;;29.55;10.65;;;;;;;-6.12;100.00;97536.38;5005205;28;20430;-56
2024/01/17 00:13:21;;;;;;;27.73;9.95;;;;;;;-6.15;100.00;97534.81;5008985;28;20025;-56
2024/01/17 00:15:47;;;;;;;27.83;10.60;;;;;;;-6.13;100.00;97525.00;5010941;28;20092;-56
2024/01/17 00:18:13;;;;;;;24.63;10.38;;;;;;;-6.25;100.00;97512.88;5006352;28;20378;-56
2024/01/17 00:20:38;;;;;;;27.50;9.55;;;;;;;-6.21;100.00;97517.75;5011654;28;20105;-57
2024/01/17 00:23:04;;;;;;;30.98;9.48;;;;;;;-6.24;100.00;97523.25;5006230;28;20204;-56
2024/01/17 00:25:29;;;;;;;19.45;8.45;;;;;;;-6.26;100.00;97542.78;5010153;28;20057;-57
2024/01/17 00:27:54;;;;;;;15.55;7.45;;;;;;;-6.51;100.00;97497.47;5007444;28;20083;-56
2024/01/17 00:30:22;;;;;;;19.77;7.28;;;;;;;-6.30;100.00;97515.88;5007070;28;20033;-56
2024/01/17 00:32:48;;;;;;;11.07;5.80;;;;;;;-6.22;100.00;97518.69;5009037;28;20022;-57
2024/01/17 00:35:13;;;;;;;18.08;7.05;;;;;;;-6.10;100.00;97503.69;5008934;28;20625;-56
2024/01/17 00:37:39;;;;;;;19.83;6.60;;;;;;;-5.97;100.00;97498.19;5014818;28;20068;-56
2024/01/17 00:40:05;;;;;;;15.52;6.47;;;;;;;-6.07;100.00;97519.22;5011095;28;20025;-57
2024/01/17 00:42:31;;;;;;;16.77;6.43;;;;;;;-6.00;100.00;97507.19;5014455;28;20025;-57
2024/01/17 00:44:56;;;;;;;16.90;6.90;;;;;;;-5.83;100.00;97510.97;5009344;28;20430;-57
2024/01/17 00:47:22;;;;;;;11.52;5.72;;;;;;;-5.78;100.00;97510.56;5133935;22;20075;-55
2024/01/17 00:49:48;;;;;;;16.10;7.07;;;;;;;-5.87;100.00;97514.81;5054363;28;20037;-65
2024/01/17 00:52:13;;;;;;;19.60;7.70;;;;;;;-5.94;100.00;97512.91;5055613;28;20104;-65
2024/01/17 00:54:38;;;;;;;21.80;7.40;;;;;;;-5.88;100.00;97501.78;5055339;28;20060;-65
2024/01/17 00:57:04;;;;;;;12.65;6.90;;;;;;;-5.90;100.00;97495.81;5053483;28;20388;-65
2024/01/17 00:59:29;;;;;;;16.70;6.68;;;;;;;-5.87;100.00;97495.56;5052140;28;20084;-65
2024/01/17 01:01:55;;;;;;;24.98;6.78;;;;;;;-5.84;100.00;97503.19;5049070;28;20026;-64
2024/01/17 01:04:20;;;;;;;19.65;7.32;;;;;;;-5.86;100.00;97492.78;5057476;28;20036;-63
2024/01/17 01:06:46;;;;;;;19.27;6.90;;;;;;;-5.90;100.00;97488.75;5050035;28;20033;-63
2024/01/17 01:09:11;;;;;;;20.55;7.57;;;;;;;-5.83;100.00;97494.34;5056315;28;20031;-63
2024/01/17 01:11:37;;;;;;;22.40;7.43;;;;;;;-5.54;100.00;97489.16;5055016;28;20104;-63
2024/01/17 01:14:03;;;;;;;23.55;8.43;;;;;;;-5.77;100.00;97483.25;5053759;28;20105;-63
2024/01/17 01:16:28;;;;;;;14.77;7.20;;;;;;;-5.86;100.00;97479.63;5054367;28;20029;-63
2024/01/17 01:18:54;;;;;;;17.83;7.97;;;;;;;-5.90;100.00;97485.28;5049460;28;20074;-63
2024/01/17 01:21:19;;;;;;;20.45;7.40;;;;;;;-5.96;100.00;97487.50;5050077;28;20039;-63
2024/01/17 01:23:46;;;;;;;18.05;8.00;;;;;;;-5.91;100.00;97496.81;5053421;28;20017;-63
2024/01/17 01:26:11;;;;;;;21.35;8.07;;;;;;;-5.98;100.00;97481.53;5050984;28;20373;-63
2024/01/17 01:28:37;;;;;;;23.25;8.25;;;;;;;-5.97;100.00;97475.31;5049139;28;20025;-63
2024/01/17 01:31:02;;;;;;;20.60;7.47;;;;;;;-5.66;100.00;97483.13;5053233;28;20461;-63
2024/01/17 01:33:28;;;;;;;18.05;7.85;;;;;;;-5.44;100.00;97478.63;5053797;28;20491;-63
2024/01/17 01:35:53;;;;;;;17.48;7.50;;;;;;;-5.23;100.00;97482.00;5046252;28;20124;-63
2024/01/17 01:38:19;;;;;;;15.52;7.32;;;;;;;-5.15;100.00;97479.50;5050352;28;20044;-63
2024/01/17 01:40:45;;;;;;;15.68;6.97;;;;;;;-5.07;100.00;97471.72;5042976;28;20040;-63
2024/01/17 01:43:26;;;;;;;18.38;7.00;;;;;;;-5.29;100.00;97443.00;5055541;28;20036;-63
2024/01/17 01:46:03;;;;;;;15.85;6.93;;;;;;;-5.16;100.00;97463.81;5053433;28;20032;-64
2024/01/17 01:48:29;;;;;;;19.08;6.93;;;;;;;-5.10;100.00;97458.84;5047795;28;20025;-63
2024/01/17 01:50:55;;;;;;;18.67;7.78;;;;;;;-5.10;100.00;97453.56;5057540;28;20472;-63
2024/01/17 01:53:21;;;;;;;25.58;7.43;;;;;;;-4.95;100.00;97439.94;5046695;28;20028;-63
2024/01/17 01:55:46;;;;;;;20.67;7.53;;;;;;;-4.92;100.00;97431.78;5057622;28;20028;-63
2024/01/17 01:58:12;;;;;;;20.10;6.85;;;;;;;-4.78;100.00;97430.50;5050552;28;20032;-63
2024/01/17 02:00:38;;;;;;;24.08;8.57;;;;;;;-4.87;100.00;97425.09;5054843;28;20024;-63
2024/01/17 02:03:04;;;;;;;20.17;7.85;;;;;;;-4.62;100.00;97422.81;5040294;28;20047;-63
2024/01/17 02:05:29;;;;;;;17.52;7.65;;;;;;;-4.72;100.00;97411.47;5053069;28;20037;-63
2024/01/17 02:07:55;;;;;;;18.42;7.78;;;;;;;-4.89;100.00;97394.56;5055365;28;20035;-64
2024/01/17 02:10:22;;;;;;;19.42;7.40;;;;;;;-4.85;100.00;97394.16;5046624;28;20079;-63
2024/01/17 02:12:49;;;;;;;21.63;7.15;;;;;;;-4.86;100.00;97394.28;5054283;28;20016;-64
2024/01/17 02:15:14;;;;;;;19.65;7.47;;;;;;;-4.90;100.00;97382.31;5054130;28;20507;-64
2024/01/17 02:17:40;;;;;;;20.48;7.68;;;;;;;-4.76;100.00;97375.78;5058382;28;20120;-63
2024/01/17 02:20:07;;;;;;;18.25;7.05;;;;;;;-4.88;100.00;97375.13;5049957;28;20033;-63
2024/01/17 02:22:32;;;;;;;16.15;6.90;;;;;;;-4.86;100.00;97379.28;5048143;28;20119;-64
2024/01/17 02:25:03;;;;;;;18.05;7.50;;;;;;;-4.91;100.00;97375.41;5056571;28;20191;-63
2024/01/17 02:27:28;;;;;;;16.23;7.15;;;;;;;-4.78;100.00;97367.19;5050380;28;20053;-53
2024/01/17 02:29:54;;;;;;;14.00;6.45;;;;;;;-4.70;100.00;97365.50;5061265;28;20549;-53
2024/01/17 02:32:19;;;;;;;16.95;7.45;;;;;;;-4.64;100.00;97372.00;5049459;28;20028;-53
2024/01/17 02:34:45;;;;;;;19.92;6.60;;;;;;;-4.77;100.00;97368.84;5052087;28;20434;-53
2024/01/17 02:37:13;;;;;;;24.83;7.00;;;;;;;-4.52;100.00;97356.84;5050918;28;20472;-53
2024/01/17 02:39:38;;;;;;;14.47;6.90;;;;;;;-4.41;100.00;97362.75;5053170;28;20037;-53
2024/01/17 02:42:04;;;;;;;18.30;7.05;;;;;;;-4.34;100.00;97360.38;5052349;28;20496;-53
2024/01/17 02:44:30;;;;;;;15.50;7.13;;;;;;;-4.45;100.00;97347.38;5052472;28;20045;-53
2024/01/17 02:46:56;;;;;;;16.83;7.40;;;;;;;-4.28;100.00;97356.31;5055989;28;20472;-53
2024/01/17 02:49:21;;;;;;;16.92;6.85;;;;;;;-4.18;100.00;97349.19;5052694;28;20037;-53
2024/01/17 02:51:47;;;;;;;14.63;7.40;;;;;;;-4.43;100.00;97332.19;5055095;28;20023;-53
2024/01/17 02:54:13;;;;;;;18.88;7.13;;;;;;;-4.46;100.00;97332.50;5051479;28;20111;-53
2024/01/17 02:56:39;;;;;;;14.73;7.47;;;;;;;-4.74;100.00;97315.78;5048589;28;20033;-53
2024/01/17 02:59:06;;;;;;;17.35;7.80;;;;;;;-4.64;100.00;97335.06;5050498;28;20475;-53
2024/01/17 03:01:31;;;;;;;18.00;7.90;;;;;;;-4.69;100.00;97327.59;5049493;28;20104;-53
2024/01/17 03:03:57;;;;;;;18.15;6.45;;;;;;;-4.80;100.00;97319.00;5040429;28;20030;-52
2024/01/17 03:06:22;;;;;;;19.50;7.68;;;;;;;-4.97;100.00;97300.31;5047415;28;20075;-52
2024/01/17 03:08:48;;;;;;;15.35;7.07;;;;;;;-4.87;100.00;97324.03;5051221;28;20037;-53
2024/01/17 03:11:13;;;;;;;20.73;7.20;;;;;;;-4.62;100.00;97328.66;5044926;28;20039;-53
2024/01/17 03:13:38;;;;;;;16.48;7.28;;;;;;;-4.47;100.00;97307.09;5053999;28;20083;-53
2024/01/17 03:16:04;;;;;;;28.42;8.77;;;;;;;-4.40;100.00;97305.53;5051577;28;20021;-52
2024/01/17 03:18:29;;;;;;;17.77;7.40;;;;;;;-4.44;100.00;97290.94;5049086;28;20064;-52
2024/01/17 03:20:55;;;;;;;22.63;8.13;;;;;;;-4.25;100.00;97292.66;5050515;28;20384;-53
2024/01/17 03:23:21;;;;;;;20.38;7.10;;;;;;;-4.33;100.00;97289.91;5050212;28;20032;-53
2024/01/17 03:25:46;;;;;;;15.93;7.00;;;;;;;-4.30;100.00;97274.59;5056990;28;20488;-53
2024/01/17 03:28:12;;;;;;;22.77;8.35;;;;;;;-4.35;100.00;97270.75;5045818;28;20036;-53
2024/01/17 03:30:37;;;;;;;15.45;7.13;;;;;;;-4.32;100.00;97270.44;5052028;28;20457;-53
2024/01/17 03:33:04;;;;;;;12.77;6.10;;;;;;;-4.28;100.00;97274.47;5055755;28;20013;-53
2024/01/17 03:35:29;;;;;;;14.73;6.57;;;;;;;-4.22;100.00;97260.66;5052960;28;20036;-53
2024/01/17 03:37:55;;;;;;;16.38;6.15;;;;;;;-4.19;100.00;97266.50;5048252;28;20025;-63
2024/01/17 03:40:20;;;;;;;15.65;6.63;;;;;;;-4.18;100.00;97268.16;5042505;28;20476;-63
2024/01/17 03:42:45;;;;;;;14.05;6.55;;;;;;;-4.13;100.00;97262.44;5049912;28;20025;-63
2024/01/17 03:45:11;;;;;;;17.42;6.90;;;;;;;-4.07;100.00;97263.63;5051222;28;20396;-63
2024/01/17 03:47:36;;;;;;;16.00;7.45;;;;;;;-3.90;100.00;97254.91;5052055;28;20035;-63
2024/01/17 03:50:03;;;;;;;18.30;6.88;;;;;;;-3.82;100.00;97251.50;5046414;28;20452;-63
2024/01/17 03:52:28;;;;;;;19.80;7.85;;;;;;;-3.75;100.00;97249.91;5052263;28;20039;-63
2024/01/17 03:54:53;;;;;;;17.30;7.75;;;;;;;-3.76;100.00;97246.44;5051825;28;20476;-63
2024/01/17 03:57:19;;;;;;;16.05;7.00;;;;;;;-3.61;100.00;97245.91;5053153;28;20487;-63
2024/01/17 03:59:44;;;;;;;19.35;7.78;;;;;;;-3.58;100.00;97240.31;5047839;28;20469;-63
2024/01/17 04:02:09;;;;;;;15.65;7.03;;;;;;;-3.43;100.00;97245.84;5050793;28;20028;-63
2024/01/17 04:04:35;;;;;;;19.17;7.65;;;;;;;-3.50;100.00;97232.44;5051783;28;20025;-63
2024/01/17 04:07:00;;;;;;;17.10;6.75;;;;;;;-3.59;100.00;97236.00;5049798;28;20025;-63
2024/01/17 04:09:26;;;;;;;20.80;6.72;;;;;;;-3.62;100.00;97229.19;5044332;28;20373;-63
2024/01/17 04:11:52;;;;;;;13.95;6.50;;;;;;;-3.51;100.00;97230.78;5047529;28;20036;-63
2024/01/17 04:14:17;;;;;;;13.15;6.32;;;;;;;-3.55;100.00;97224.13;5057711;28;20027;-63
2024/01/17 04:16:43;;;;;;;14.10;6.50;;;;;;;-3.55;100.00;97203.00;5052841;28;20534;-63
2024/01/17 04:19:11;;;;;;;18.42;7.20;;;;;;;-3.59;100.00;97193.69;5049575;28;20029;-63
2024/01/17 04:21:36;;;;;;;12.43;6.27;;;;;;;-3.39;100.00;97197.81;5045296;28;20393;-63
2024/01/17 04:24:02;;;;;;;18.20;6.78;;;;;;;-3.35;100.00;97174.56;5049853;28;20053;-63
2024/01/17 04:26:27;;;;;;;14.77;6.45;;;;;;;-3.53;100.00;97166.66;5051598;28;20024;-63
2024/01/17 04:28:53;;;;;;;17.25;6.60;;;;;;;-3.64;100.00;97165.09;5054001;28;20471;-63
2024/01/17 04:31:25;;;;;;;14.93;6.88;;;;;;;-3.58;100.00;97142.50;5052826;28;20020;-63
2024/01/17 04:33:51;;;;;;;13.88;6.97;;;;;;;-3.56;100.00;97145.84;5054316;28;20024;-63
2024/01/17 04:36:17;;;;;;;13.88;6.63;;;;;;;-3.61;100.00;97124.31;5051152;28;20029;-63
2024/01/17 04:38:43;;;;;;;16.25;7.10;;;;;;;-3.49;100.00;97127.53;5050370;28;20025;-62
2024/01/17 04:41:11;;;;;;;15.57;7.00;;;;;;;-3.44;100.00;97122.59;5053707;28;20025;-62
2024/01/17 04:43:36;;;;;;;16.08;7.07;;;;;;;-3.06;100.00;97117.84;5051027;28;20113;-62
2024/01/17 04:46:02;;;;;;;15.35;6.47;;;;;;;-3.06;100.00;97126.59;5053404;28;20103;-62
2024/01/17 04:48:27;;;;;;;20.58;7.32;;;;;;;-3.03;100.00;97125.44;5049807;28;20074;-62
2024/01/17 04:50:58;;;;;;;13.20;6.07;;;;;;;-2.98;100.00;97120.50;5051109;28;20035;-62
2024/01/17 04:53:26;;;;;;;16.67;6.90;;;;;;;-2.95;100.00;97109.59;5043058;28;20024;-61
2024/01/17 04:55:52;;;;;;;14.38;6.22;;;;;;;-3.00;100.00;97098.66;5049787;28;20479;-60
2024/01/17 04:58:18;;;;;;;19.50;7.05;;;;;;;-2.92;100.00;97094.22;5054204;28;20016;-60
2024/01/17 05:00:45;;;;;;;14.57;6.22;;;;;;;-2.98;100.00;97092.22;5045146;28;20102;-59
2024/01/17 05:03:10;;;;;;;13.15;6.57;;;;;;;-2.90;100.00;97089.59;5050058;28;20025;-59
2024/01/17 05:05:36;;;;;;;11.43;6.05;;;;;;;-2.93;100.00;97082.00;5051809;28;20079;-59
2024/01/17 05:08:02;;;;;;;13.30;6.28;;;;;;;-2.84;100.00;97077.53;5047571;28;20025;-59
2024/01/17 05:10:27;;;;;;;13.30;6.43;;;;;;;-2.82;100.00;97080.03;5051136;28;20520;-58
2024/01/17 05:12:53;;;;;;;16.27;6.95;;;;;;;-2.65;100.00;97074.63;5050658;28;20424;-59
2024/01/17 05:15:18;;;;;;;12.43;6.18;;;;;;;-2.68;100.00;97063.50;5052585;28;20493;-58
2024/01/17 05:17:43;;;;;;;19.25;6.93;;;;;;;-2.69;100.00;97065.34;5055347;28;20108;-58
2024/01/17 05:20:09;;;;;;;16.20;6.18;;;;;;;-2.76;100.00;97052.91;5056293;28;20035;-58
2024/01/17 05:22:39;;;;;;;16.77;6.32;;;;;;;-2.65;100.00;97053.44;5056554;28;20075;-58
2024/01/17 05:25:06;;;;;;;14.90;6.82;;;;;;;-2.64;100.00;97043.69;5049487;28;20165;-59
2024/01/17 05:27:32;;;;;;;13.23;5.80;;;;;;;-2.51;100.00;97038.72;5049552;28;20476;-59
2024/01/17 05:29:57;;;;;;;12.75;5.97;;;;;;;-2.52;100.00;97034.41;5048168;28;20037;-59
2024/01/17 05:32:22;;;;;;;13.98;6.90;;;;;;;-2.54;100.00;97020.53;5049649;28;20025;-59
2024/01/17 05:34:50;;;;;;;17.55;6.13;;;;;;;-2.45;100.00;97016.88;5055021;28;20024;-59
2024/01/17 05:37:16;;;;;;;13.55;6.30;;;;;;;-2.50;100.00;97008.59;5059729;28;20099;-60
2024/01/17 05:39:41;;;;;;;14.00;7.00;;;;;;;-2.48;100.00;97009.25;5039704;28;20028;-60
2024/01/17 05:42:06;;;;;;;15.32;7.32;;;;;;;-2.40;100.00;97004.97;5051522;28;20021;-60
2024/01/17 05:44:32;;;;;;;18.20;7.68;;;;;;;-2.29;100.00;96992.19;5055070;28;20718;-58
2024/01/17 05:46:57;;;;;;;15.02;7.30;;;;;;;-2.19;100.00;96986.72;5048925;28;20342;-59
2024/01/17 05:49:23;;;;;;;15.18;7.22;;;;;;;-2.09;100.00;96981.25;5052759;28;20028;-59
2024/01/17 05:51:50;;;;;;;13.32;6.75;;;;;;;-2.09;100.00;96966.19;5046306;28;20463;-59
2024/01/17 05:54:15;;;;;;;16.15;7.35;;;;;;;-2.05;100.00;96967.47;5052265;28;20029;-60
2024/01/17 05:56:41;;;;;;;17.02;8.20;;;;;;;-2.03;100.00;96962.84;5048893;28;20420;-58
2024/01/17 05:59:06;;;;;;;16.58;7.70;;;;;;;-2.15;100.00;96942.19;5048425;28;20112;-59
2024/01/17 06:01:34;;;;;;;20.38;9.02;;;;;;;-2.01;100.00;96944.97;5044922;28;20381;-58
2024/01/17 06:03:59;;;;;;;21.05;9.23;;;;;;;-1.96;100.00;96943.63;5052382;28;20023;-58
2024/01/17 06:06:25;;;;;;;20.17;7.82;;;;;;;-1.92;100.00;96935.16;5051186;28;20028;-58
2024/01/17 06:08:50;;;;;;;17.83;7.97;;;;;;;-1.87;100.00;96938.13;5048426;28;20036;-59
2024/01/17 06:11:16;;;;;;;17.38;8.02;;;;;;;-1.86;100.00;96918.59;5051012;28;20029;-58
2024/01/17 06:13:41;;;;;;;13.45;6.20;;;;;;;-1.84;100.00;96913.91;5051887;28;20526;-58
2024/01/17 06:16:07;;;;;;;20.60;7.63;;;;;;;-1.85;100.00;96906.97;5041816;28;20028;-58
2024/01/17 06:18:32;;;;;;;15.52;6.63;;;;;;;-1.84;100.00;96905.16;5051535;28;20056;-59
2024/01/17 06:20:58;;;;;;;15.05;6.72;;;;;;;-1.82;100.00;96897.84;5053040;28;20060;-60
2024/01/17 06:23:23;;;;;;;17.35;8.07;;;;;;;-1.81;100.00;96894.19;5051845;28;20025;-59
2024/01/17 06:25:49;;;;;;;13.63;7.28;;;;;;;-1.72;100.00;96885.22;5049175;28;20025;-58
2024/01/17 06:28:14;;;;;;;15.68;7.45;;;;;;;-1.73;100.00;96880.06;5048812;28;20020;-59
2024/01/17 06:30:40;;;;;;;16.02;7.68;;;;;;;-1.71;100.00;96868.31;5047032;28;20090;-59
2024/01/17 06:33:05;;;;;;;15.65;7.68;;;;;;;-1.69;100.00;96865.50;5049180;28;20032;-59
2024/01/17 06:35:32;;;;;;;15.68;7.07;;;;;;;-1.70;100.00;96874.44;5045512;28;20032;-59
2024/01/17 06:37:57;;;;;;;13.95;7.75;;;;;;;-1.91;100.00;96877.66;5047525;28;20036;-59
2024/01/17 06:40:23;;;;;;;18.30;7.55;;;;;;;-1.90;100.00;96879.34;5040464;28;20093;-59
2024/01/17 06:42:48;;;;;;;21.45;8.05;;;;;;;-1.81;100.00;96875.63;5046273;28;20018;-59
2024/01/17 06:45:14;;;;;;;20.88;7.57;;;;;;;-1.67;100.00;96868.81;5041107;28;20043;-59
2024/01/17 06:47:39;;;;;;;17.52;7.80;;;;;;;-1.61;100.00;96868.91;5056776;22;20049;-67
2024/01/17 06:50:05;;;;;;;21.55;9.45;;;;;;;-1.56;100.00;96855.13;5046474;28;20116;-66
2024/01/17 06:52:30;;;;;;;21.25;9.30;;;;;;;-1.47;100.00;96859.38;5043221;28;20052;-65
2024/01/17 06:54:56;;;;;;;17.17;9.07;;;;;;;-1.43;100.00;96854.56;5038469;28;20037;-65
2024/01/17 06:57:21;;;;;;;21.50;8.73;;;;;;;-1.29;100.00;96851.13;5027082;28;20085;-69
2024/01/17 06:59:48;;;;;;;19.52;8.25;;;;;;;-1.26;100.00;96840.16;5030872;28;20479;-68
2024/01/17 07:02:14;;;;;;;15.77;7.95;;;;;;;-1.19;100.00;96841.13;5033997;28;20025;-66
2024/01/17 07:04:41;;;;;;;18.92;8.82;;;;;;;-1.17;100.00;96838.31;5033657;28;20108;-66
2024/01/17 07:07:07;;;;;;;19.77;9.25;;;;;;;-1.13;100.00;96834.25;5031207;28;20052;-66
2024/01/17 07:09:32;;;;;;;17.13;8.48;;;;;;;-1.11;100.00;96832.28;5026444;28;20504;-66
2024/01/17 07:11:57;;;;;;;19.77;8.77;;;;;;;-1.03;100.00;96836.69;5034849;28;20036;-66
2024/01/17 07:14:23;;;;;;;18.48;8.98;;;;;;;-1.03;100.00;96834.03;5029705;28;20029;-67
2024/01/17 07:16:48;;;;;;;18.67;8.52;;;;;;;-0.98;100.00;96831.66;5029035;28;20029;-67
2024/01/17 07:19:14;;;;;;;26.20;11.57;;;;;;;-0.97;100.00;96822.69;5033329;28;20037;-66
2024/01/17 07:21:41;;;;;;;25.00;11.68;;;;;;;-0.89;100.00;96825.28;5028448;28;20037;-67
2024/01/17 07:24:06;;;;;;;23.63;10.20;;;;;;;-0.86;100.00;96814.31;5030412;28;20037;-67
2024/01/17 07:26:32;;;;;;;26.80;11.27;;;;;;;-0.79;100.00;96815.22;5026647;28;20465;-67
2024/01/17 07:28:57;;;;;;;30.25;12.13;;;;;;;-0.70;100.00;96805.38;5028074;28;20056;-67
2024/01/17 07:31:22;;;;;;;29.15;12.20;;;;;;;-0.69;100.00;96799.84;5029961;28;20056;-67
2024/01/17 07:33:48;;;;;;;20.25;9.45;;;;;;;-0.65;100.00;96800.34;5027137;28;20021;-68
2024/01/17 07:36:14;;;;;;;23.52;8.55;;;;;;;-0.80;100.00;96780.91;5029120;28;20029;-67
2024/01/17 07:38:39;;;;;;;24.90;8.95;;;;;;;-0.78;100.00;96790.34;5028760;28;20099;-67
2024/01/17 07:41:05;;;;;;;22.15;9.88;;;;;;;-0.74;100.00;96780.97;5023891;28;20388;-67
2024/01/17 07:43:31;;;;;;;21.83;10.50;;;;;;;-0.59;100.00;96785.50;5030183;28;20040;-67
2024/01/17 07:45:58;;;;;;;18.35;9.05;;;;;;;-0.62;100.00;96780.56;5029450;28;20075;-66
2024/01/17 07:48:24;;;;;;;18.45;9.55;;;;;;;-0.51;100.00;96769.47;5031175;28;20080;-66
2024/01/17 07:50:50;;;;;;;22.27;10.48;;;;;;;-0.47;100.00;96750.31;5034190;28;20116;-67
2024/01/17 07:53:16;;;;;;;18.70;10.50;;;;;;;-0.14;100.00;96768.50;5032672;28;20028;-67
2024/01/17 07:55:42;;;;;;;18.67;10.27;;;;;;;-0.19;100.00;96767.41;5029637;28;20040;-67
2024/01/17 07:58:07;;;;;;;23.80;10.63;;;;;;;-0.18;100.00;96759.28;5030702;28;20037;-66
2024/01/17 08:00:33;;;;;;;23.00;10.60;;;;;;;-0.16;100.00;96748.44;5029122;28;20498;-67
2024/01/17 08:02:59;;;;;;;23.33;10.35;;;;;;;-0.12;100.00;96757.69;5029212;28;20064;-68
2024/01/17 08:05:24;;;;;;;23.23;10.27;;;;;;;-0.01;100.00;96749.22;5029891;28;20390;-66
2024/01/17 08:07:49;;;;;;;20.17;10.13;;;;;;;-0.05;100.00;96742.66;5027916;28;20479;-66
2024/01/17 08:10:15;;;;;;;21.00;9.88;;;;;;;-0.07;100.00;96753.47;5026915;28;20087;-67
2024/01/17 08:12:41;;;;;;;19.58;9.38;;;;;;;0.06;100.00;96751.97;5031469;28;20026;-68
2024/01/17 08:15:08;;;;;;;20.00;10.02;;;;;;;0.05;100.00;96737.84;5026929;28;20037;-68
2024/01/17 08:17:33;;;;;;;21.35;9.82;;;;;;;0.15;100.00;96743.69;5030912;28;20112;-68
2024/01/17 08:19:59;;;;;;;24.17;9.82;;;;;;;0.18;100.00;96735.34;5031727;28;20437;-67
2024/01/17 08:22:25;;;;;;;22.83;10.00;;;;;;;0.20;100.00;96735.16;5027457;28;20087;-68
2024/01/17 08:24:50;;;;;;;17.48;9.30;;;;;;;0.30;100.00;96727.69;5027397;28;20029;-59
2024/01/17 08:27:16;;;;;;;20.80;10.23;;;;;;;0.33;100.00;96719.31;5034299;28;20032;-59
2024/01/17 08:29:44;;;;;;;29.83;8.57;;;;;;;0.36;100.00;96718.94;5028256;28;20132;-58
2024/01/17 08:32:10;;;;;;;21.48;9.80;;;;;;;0.39;100.00;96715.06;5028456;28;20074;-58
2024/01/17 08:34:36;;;;;;;19.33;10.13;;;;;;;0.46;100.00;96707.16;5029563;28;20440;-58
2024/01/17 08:37:01;;;;;;;23.13;9.50;;;;;;;0.60;100.00;96701.78;5030829;28;20026;-58
2024/01/17 08:39:27;;;;;;;19.85;9.27;;;;;;;0.76;100.00;96702.47;5020858;28;20032;-58
2024/01/17 08:41:53;;;;;;;21.38;9.95;;;;;;;0.91;100.00;96700.56;5029530;28;20055;-57
2024/01/17 08:44:19;;;;;;;21.38;9.90;;;;;;;0.83;100.00;96690.06;5029920;28;20021;-58
2024/01/17 08:46:46;;;;;;;18.33;9.38;;;;;;;0.85;100.00;96675.53;5031432;28;20468;-58
2024/01/17 08:49:11;;;;;;;16.23;9.10;;;;;;;1.01;100.00;96681.59;5026313;28;20440;-58
2024/01/17 08:51:37;;;;;;;19.25;8.45;;;;;;;1.01;100.00;96676.25;5030461;28;20037;-57
2024/01/17 08:54:03;;;;;;;16.40;9.25;;;;;;;1.12;100.00;96670.38;5029471;28;20460;-58
2024/01/17 08:56:29;;;;;;;19.83;9.63;;;;;;;1.29;100.00;96663.72;5029755;28;20025;-58
2024/01/17 08:58:56;;;;;;;16.27;9.07;;;;;;;1.33;100.00;96658.81;5031081;28;20037;-58
2024/01/17 09:01:21;;;;;;;17.58;9.57;;;;;;;1.43;100.00;96653.13;5032350;28;20439;-58
2024/01/17 09:03:46;;;;;;;16.40;8.43;;;;;;;1.42;100.00;96648.81;5034379;28;20122;-58
2024/01/17 09:06:18;;;;;;;17.58;8.93;;;;;;;1.35;100.00;96619.47;5045245;22;20040;-81
2024/01/17 09:08:43;;;;;;;16.50;7.97;;;;;;;1.56;100.00;96617.72;5062277;28;20029;-84
2024/01/17 09:11:08;;;;;;;13.55;7.10;;;;;;;1.72;100.00;96614.66;5061751;28;20193;-77
2024/01/17 09:13:34;;;;;;;13.75;7.18;;;;;;;1.80;100.00;96609.16;5073878;28;20017;-78
2024/01/17 09:15:59;;;;;;;19.10;8.05;;;;;;;1.81;100.00;96608.16;5063781;28;20115;-79
2024/01/17 09:18:24;;;;;;;18.73;7.82;;;;;;;1.84;100.00;96610.41;5064130;28;20025;-79
2024/01/17 09:20:50;;;;;;;23.40;9.50;;;;;;;2.02;100.00;96616.97;5179381;22;20041;-58
2024/01/17 09:23:16;;;;;;;22.73;9.25;;;;;;;2.05;100.00;96613.94;5030451;28;20034;-57
2024/01/17 09:25:43;;;;;;;20.02;8.50;;;;;;;2.12;100.00;96604.91;5038935;28;20036;-62
2024/01/17 09:28:09;;;;;;;17.45;7.40;;;;;;;2.16;100.00;96602.66;5044911;28;20357;-57
2024/01/17 09:30:34;;;;;;;15.68;7.28;;;;;;;2.23;100.00;96599.97;5030276;28;20036;-62
2024/01/17 09:33:00;;;;;;;11.95;5.80;;;;;;;2.35;100.00;96596.47;5036788;28;20377;-63
2024/01/17 09:35:27;;;;;;;12.65;6.28;;;;;;;2.38;100.00;96596.09;5040108;28;20364;-63
2024/01/17 09:37:52;;;;;;;13.82;6.60;;;;;;;2.45;100.00;96589.91;5034671;28;20021;-57
2024/01/17 09:40:21;;;;;;;11.55;5.57;;;;;;;2.46;100.00;96592.38;5046407;28;20028;-58
2024/01/17 09:42:46;;;;;;;10.73;6.10;;;;;;;2.55;100.00;96590.31;5040573;28;20412;-57
2024/01/17 09:45:16;;;;;;;13.93;6.80;;;;;;;2.55;100.00;96590.31;5031712;28;20037;-62
2024/01/17 09:47:41;;;;;;;;;;;;;;;2.59;100.00;96584.38;5028379;28;21898;-57
2024/01/17 09:50:07;;;;;;;10.27;5.00;;;;;;;2.66;100.00;96586.19;5035066;28;19913;-57
2024/01/17 09:52:33;;;;;;;12.15;5.25;;;;;;;2.69;100.00;96583.94;5035624;28;20092;-57
2024/01/17 09:55:12;;;;;;;12.60;7.13;;;;;;;2.67;100.00;96564.63;5046444;28;20392;-57
2024/01/17 09:57:44;;;;;;;11.07;5.55;;;;;;;2.74;100.00;96569.97;5158254;22;20160;-62
2024/01/17 10:00:10;;;;;;;9.10;4.07;;;;;;;2.82;100.00;96559.88;5031072;28;20041;-63
2024/01/17 10:02:38;;;;;;;9.60;5.30;;;;;;;2.93;100.00;96555.72;5035368;28;20030;-63
2024/01/17 10:05:05;;;;;;;13.82;6.13;;;;;;;2.94;100.00;96545.88;5034366;28;20025;-58
2024/01/17 10:07:31;;;;;;;12.75;5.47;;;;;;;2.94;100.00;96540.53;5031671;28;20056;-57
2024/01/17 10:09:57;;;;;;;13.35;5.75;;;;;;;2.97;100.00;96535.59;5046905;28;20075;-57
2024/01/17 10:12:22;;;;;;;11.98;5.00;;;;;;;3.06;100.00;96528.16;5054582;28;20025;-63
2024/01/17 10:14:47;;;;;;;10.52;5.20;;;;;;;3.04;100.00;96527.56;5036965;28;20025;-63
2024/01/17 10:17:13;;;;;;;12.32;6.05;;;;;;;3.06;100.00;96526.28;5035689;28;20029;-57
2024/01/17 10:19:40;;;;;;;10.18;5.18;;;;;;;3.14;100.00;96506.53;5029454;28;20025;-64
2024/01/17 10:22:09;;;;;;;8.18;4.93;;;;;;;3.11;100.00;96490.94;5043173;28;20483;-58
2024/01/17 10:24:35;;;;;;;7.65;4.00;;;;;;;3.29;100.00;96496.38;5035436;28;20100;-60
2024/01/17 10:27:02;;;;;;;10.38;4.88;;;;;;;3.35;100.00;96488.53;5031789;28;20035;-59
2024/01/17 10:29:30;;;;;;;11.45;5.28;;;;;;;3.38;100.00;96472.06;5041445;28;20527;-58
2024/01/17 10:31:59;;;;;;;9.50;4.72;;;;;;;3.37;100.00;96468.59;5040180;28;20025;-59
2024/01/17 10:34:29;;;;;;;9.63;5.35;;;;;;;3.45;100.00;96467.50;5039166;28;20025;-58
2024/01/17 10:36:54;;;;;;;13.73;5.28;;;;;;;3.50;100.00;96463.16;5033443;28;20029;-64
2024/01/17 10:39:20;;;;;;;10.57;5.07;;;;;;;3.56;100.00;96452.63;5038107;28;20175;-58
2024/01/17 10:41:54;;;;;;;9.50;5.10;;;;;;;3.56;100.00;96431.25;5029777;28;20056;-58
2024/01/17 10:44:21;;;;;;;9.43;4.32;;;;;;;3.57;100.00;96423.03;5038619;28;20401;-58
2024/01/17 10:46:50;;;;;;;8.50;4.38;;;;;;;3.53;100.00;96411.13;5040102;28;20044;-63
2024/01/17 10:49:16;;;;;;;6.43;3.50;;;;;;;3.51;100.00;96391.78;5036746;28;20049;-64
2024/01/17 10:51:49;;;;;;;7.43;3.45;;;;;;;3.66;100.00;96399.50;5027904;28;20063;-64
2024/01/17 10:54:16;;;;;;;8.50;4.25;;;;;;;3.71;100.00;96408.50;5032048;28;20071;-64
2024/01/17 10:56:50;;;;;;;9.27;4.28;;;;;;;3.71;100.00;96395.13;5036357;28;20485;-64
2024/01/17 10:59:20;;;;;;;8.68;3.70;;;;;;;3.67;100.00;96390.47;5036625;28;20032;-58
2024/01/17 11:01:48;;;;;;;8.10;4.03;;;;;;;3.66;100.00;96378.91;5041498;28;20040;-58
2024/01/17 11:04:22;;;;;;;10.00;5.10;;;;;;;3.61;100.00;96373.41;5030338;28;20068;-58
2024/01/17 11:06:49;;;;;;;8.25;4.20;;;;;;;3.57;100.00;96364.19;5027062;28;20029;-64
2024/01/17 11:09:16;;;;;;;7.45;4.40;;;;;;;3.61;100.00;96373.41;5039677;28;20638;-64
2024/01/17 11:11:42;;;;;;;8.10;4.50;;;;;;;3.58;100.00;96368.50;5039298;28;20102;-64
2024/01/17 11:14:08;;;;;;;8.98;3.97;;;;;;;3.50;100.00;96347.41;5038010;28;20037;-64